Time;durP1;ratioP1;P1;durP2;ratioP2;P2;SDS_P1;SDS_P2;PMS_P1;PMS_P2;Temp;Humidity;BMP_temperature;BMP_pressure;BME280_temperature;BME280_humidity;BME280_pressure;Samples;Min_cycle;Max_cycle;Signal;HPM_P1;HPM_P2
2022/08/07 00:02:06;;;;;;;;;;;27.50;38.80;;;;;;8362707;28;19917;-46
2022/08/07 00:06:07;;;;;;;;;;;27.50;38.80;;;;;;8363628;28;19917;-44
2022/08/07 00:10:07;;;;;;;;;;;27.50;38.80;;;;;;8363181;28;20083;-45
2022/08/07 00:14:08;;;;;;;;;;;27.50;38.80;;;;;;8362671;28;19927;-44
2022/08/07 00:18:09;;;;;;;;;;;27.50;38.80;;;;;;8362954;28;19917;-45
2022/08/07 00:22:09;;;;;;;;;;;27.40;38.80;;;;;;8368141;28;20317;-44
2022/08/07 00:26:10;;;;;;;;;;;27.50;38.80;;;;;;8369348;28;19960;-44
2022/08/07 00:30:11;;;;;;;;;;;27.40;38.80;;;;;;8369645;28;20133;-46
2022/08/07 00:34:11;;;;;;;;;;;27.40;38.80;;;;;;8369181;28;19974;-45
2022/08/07 00:38:12;;;;;;;;;;;27.40;38.80;;;;;;8368727;28;19920;-45
2022/08/07 00:42:12;;;;;;;;;;;27.40;38.80;;;;;;8373182;28;20444;-45
2022/08/07 00:46:13;;;;;;;;;;;27.40;38.80;;;;;;8402228;28;20362;-44
2022/08/07 00:50:14;;;;;;;;;;;27.40;38.80;;;;;;8401748;28;19924;-44
2022/08/07 00:54:14;;;;;;;;;;;27.40;38.80;;;;;;8401853;28;19916;-45
2022/08/07 00:58:17;;;;;;;;;;;27.40;38.80;;;;;;8401706;28;20281;-45
2022/08/07 01:02:18;;;;;;;;;;;27.40;39.40;;;;;;8395450;28;19917;-44
2022/08/07 01:06:19;;;;;;;;;;;27.40;38.80;;;;;;8368668;28;19913;-44
2022/08/07 01:10:19;;;;;;;;;;;27.40;38.80;;;;;;8368151;28;20398;-44
2022/08/07 01:14:21;;;;;;;;;;;27.30;38.80;;;;;;8367368;28;19953;-44
2022/08/07 01:18:21;;;;;;;;;;;27.30;38.80;;;;;;8367802;28;19921;-45
2022/08/07 01:22:22;;;;;;;;;;;27.30;38.80;;;;;;8367723;28;20001;-44
2022/08/07 01:26:23;;;;;;;;;;;27.30;38.90;;;;;;8367419;28;19913;-44
2022/08/07 01:30:24;;;;;;;;;;;27.30;38.80;;;;;;8367463;28;19978;-44
2022/08/07 01:34:25;;;;;;;;;;;27.30;38.80;;;;;;8366266;28;20370;-45
2022/08/07 01:38:26;;;;;;;;;;;27.30;38.90;;;;;;8366892;28;19921;-46
2022/08/07 01:42:27;;;;;;;;;;;27.30;38.90;;;;;;8367127;28;19924;-44
2022/08/07 01:46:27;;;;;;;;;;;27.30;38.90;;;;;;8367449;28;19913;-44
2022/08/07 01:50:28;;;;;;;;;;;27.30;38.90;;;;;;8366513;28;20408;-44
2022/08/07 01:54:30;;;;;;;;;;;27.20;38.80;;;;;;8366875;28;19928;-44
2022/08/07 01:58:33;;;;;;;;;;;27.20;38.80;;;;;;8366700;28;20409;-44
2022/08/07 02:02:51;;;;;;;;;;;27.20;38.80;;;;;;8366152;28;19932;-45
2022/08/07 02:06:55;;;;;;;;;;;27.20;38.80;;;;;;8366729;28;19939;-44
2022/08/07 02:10:58;;;;;;;;;;;27.20;38.80;;;;;;8365729;28;20011;-45
2022/08/07 02:14:59;;;;;;;;;;;27.20;38.80;;;;;;8366245;28;20012;-45
2022/08/07 02:19:01;;;;;;;;;;;27.20;38.90;;;;;;8366140;28;20271;-45
2022/08/07 02:23:03;;;;;;;;;;;27.20;38.90;;;;;;8365364;28;19917;-45
2022/08/07 02:27:04;;;;;;;;;;;27.20;38.90;;;;;;8366311;28;19917;-44
2022/08/07 02:31:06;;;;;;;;;;;27.20;38.90;;;;;;8365578;28;19931;-45
2022/08/07 02:35:07;;;;;;;;;;;27.20;38.90;;;;;;8365030;28;19952;-45
2022/08/07 02:39:07;;;;;;;;;;;27.20;38.90;;;;;;8365325;28;19921;-45
2022/08/07 02:43:08;;;;;;;;;;;27.20;38.90;;;;;;8365041;28;19959;-44
2022/08/07 02:47:10;;;;;;;;;;;27.10;38.90;;;;;;8364372;28;19920;-44
2022/08/07 02:51:13;;;;;;;;;;;27.10;38.90;;;;;;8364658;28;20412;-44
2022/08/07 02:55:21;;;;;;;;;;;27.10;38.90;;;;;;8364754;28;19917;-45
2022/08/07 02:59:23;;;;;;;;;;;27.10;38.90;;;;;;8363989;28;19932;-44
2022/08/07 03:03:25;;;;;;;;;;;27.10;38.90;;;;;;8364711;28;19917;-45
2022/08/07 03:07:26;;;;;;;;;;;27.10;38.90;;;;;;8364836;28;20433;-44
2022/08/07 03:11:27;;;;;;;;;;;27.10;38.90;;;;;;8363698;28;19932;-44
2022/08/07 03:15:28;;;;;;;;;;;27.10;38.90;;;;;;8364343;28;19916;-46
2022/08/07 03:19:29;;;;;;;;;;;27.00;38.90;;;;;;8364110;28;20004;-45
2022/08/07 03:23:29;;;;;;;;;;;27.00;38.90;;;;;;8363606;28;19920;-44
2022/08/07 03:27:30;;;;;;;;;;;27.00;38.90;;;;;;8364191;28;19919;-45
2022/08/07 03:31:31;;;;;;;;;;;27.00;38.90;;;;;;8363733;28;20066;-45
2022/08/07 03:35:32;;;;;;;;;;;27.00;38.90;;;;;;8363304;28;20274;-45
2022/08/07 03:39:34;;;;;;;;;;;27.00;38.90;;;;;;8363864;28;20369;-45
2022/08/07 03:43:35;;;;;;;;;;;27.00;39.00;;;;;;8363781;28;20023;-44
2022/08/07 03:47:36;;;;;;;;;;;27.00;38.90;;;;;;8363460;28;20285;-45
2022/08/07 03:51:37;;;;;;;;;;;27.00;39.00;;;;;;8363314;28;19925;-44
2022/08/07 03:55:37;;;;;;;;;;;27.00;39.00;;;;;;8362881;28;20053;-44
2022/08/07 03:59:39;;;;;;;;;;;27.00;39.00;;;;;;8362707;28;19917;-44
2022/08/07 04:03:39;;;;;;;;;;;26.90;38.90;;;;;;8363230;28;20355;-44
2022/08/07 04:07:46;;;;;;;;;;;26.90;38.90;;;;;;8363503;28;19928;-45
2022/08/07 04:11:48;;;;;;;;;;;26.90;38.90;;;;;;8345363;28;19925;-46
2022/08/07 04:15:48;;;;;;;;;;;26.90;39.00;;;;;;8352421;28;19917;-43
2022/08/07 04:19:49;;;;;;;;;;;26.90;39.00;;;;;;8362643;28;19913;-42
2022/08/07 04:23:50;;;;;;;;;;;26.90;38.90;;;;;;8362861;28;19944;-44
2022/08/07 04:27:51;;;;;;;;;;;26.90;39.00;;;;;;8362932;28;20008;-43
2022/08/07 04:31:51;;;;;;;;;;;26.90;39.00;;;;;;8362278;28;19982;-44
2022/08/07 04:35:52;;;;;;;;;;;26.80;38.90;;;;;;8363244;28;19974;-43
2022/08/07 04:39:52;;;;;;;;;;;26.80;38.90;;;;;;8362946;28;19921;-44
2022/08/07 04:43:54;;;;;;;;;;;26.90;39.00;;;;;;8362147;28;20382;-43
2022/08/07 04:48:03;;;;;;;;;;;26.90;39.10;;;;;;8362640;28;19913;-43
2022/08/07 04:52:11;;;;;;;;;;;26.80;39.00;;;;;;8362529;28;19971;-43
2022/08/07 04:56:18;;;;;;;;;;;26.80;39.00;;;;;;8385263;28;19916;-43
2022/08/07 05:00:24;;;;;;;;;;;26.80;39.00;;;;;;8395737;28;19916;-43
2022/08/07 05:04:33;;;;;;;;;;;26.80;39.00;;;;;;8395426;28;19912;-44
2022/08/07 05:08:40;;;;;;;;;;;26.80;39.00;;;;;;8400306;28;19917;-44
2022/08/07 05:12:42;;;;;;;;;;;26.80;39.00;;;;;;8401258;28;19982;-44
2022/08/07 05:16:47;;;;;;;;;;;26.80;39.00;;;;;;8400912;28;19916;-43
2022/08/07 05:20:49;;;;;;;;;;;26.80;39.10;;;;;;8400323;28;19916;-43
2022/08/07 05:24:51;;;;;;;;;;;26.80;39.00;;;;;;8400702;28;19917;-44
2022/08/07 05:28:53;;;;;;;;;;;26.80;39.00;;;;;;8400154;28;20374;-43
2022/08/07 05:32:54;;;;;;;;;;;26.80;39.10;;;;;;8400495;28;19924;-43
2022/08/07 05:36:55;;;;;;;;;;;26.80;39.10;;;;;;8400279;28;20006;-44
2022/08/07 05:40:56;;;;;;;;;;;26.80;39.10;;;;;;8399759;28;19978;-44
2022/08/07 05:44:57;;;;;;;;;;;26.80;39.10;;;;;;8400206;28;19917;-44
2022/08/07 05:48:58;;;;;;;;;;;26.80;39.10;;;;;;8400044;28;19912;-43
2022/08/07 05:53:00;;;;;;;;;;;26.70;39.10;;;;;;8399583;28;19928;-44
2022/08/07 05:57:01;;;;;;;;;;;26.70;39.10;;;;;;8400051;28;19917;-44
2022/08/07 06:01:02;;;;;;;;;;;26.70;39.10;;;;;;8399871;28;19920;-44
2022/08/07 06:05:10;;;;;;;;;;;26.70;39.10;;;;;;8399219;28;19986;-45
2022/08/07 06:09:11;;;;;;;;;;;26.70;39.10;;;;;;8399416;28;20166;-46
2022/08/07 06:13:11;;;;;;;;;;;26.70;39.10;;;;;;8399452;28;20018;-44
2022/08/07 06:17:13;;;;;;;;;;;26.70;39.10;;;;;;8397979;28;20361;-44
2022/08/07 06:21:15;;;;;;;;;;;26.70;39.10;;;;;;8399008;28;19932;-44
2022/08/07 06:25:16;;;;;;;;;;;26.70;39.10;;;;;;8398934;28;20324;-45
2022/08/07 06:29:18;;;;;;;;;;;26.70;39.10;;;;;;8397579;28;21290;-45
2022/08/07 06:33:19;;;;;;;;;;;26.70;39.10;;;;;;8398738;28;19925;-45
2022/08/07 06:37:19;;;;;;;;;;;26.70;39.10;;;;;;8398436;28;19917;-44
2022/08/07 06:41:23;;;;;;;;;;;26.70;39.10;;;;;;8397965;28;19916;-44
2022/08/07 06:45:23;;;;;;;;;;;26.70;39.10;;;;;;8398309;28;20353;-45
2022/08/07 06:49:24;;;;;;;;;;;26.70;39.00;;;;;;8398104;28;19913;-44
2022/08/07 06:53:25;;;;;;;;;;;26.70;39.00;;;;;;8397679;28;19920;-45
2022/08/07 06:57:28;;;;;;;;;;;26.70;39.00;;;;;;8397925;28;19917;-45
2022/08/07 07:01:30;;;;;;;;;;;26.70;39.00;;;;;;8397798;28;19923;-44
2022/08/07 07:05:30;;;;;;;;;;;26.70;39.10;;;;;;8397215;28;19939;-45
2022/08/07 07:09:31;;;;;;;;;;;26.70;39.00;;;;;;8397733;28;19923;-45
2022/08/07 07:13:39;;;;;;;;;;;26.70;39.00;;;;;;8340681;28;19921;-45
2022/08/07 07:17:42;;;;;;;;;;;26.70;39.00;;;;;;8358380;28;19920;-45
2022/08/07 07:21:44;;;;;;;;;;;26.70;39.00;;;;;;8364005;28;19917;-45
2022/08/07 07:25:45;;;;;;;;;;;26.70;39.00;;;;;;8346063;28;19924;-44
2022/08/07 07:29:48;;;;;;;;;;;26.70;39.00;;;;;;8364034;28;19951;-44
2022/08/07 07:33:50;;;;;;;;;;;26.70;39.00;;;;;;8363710;28;19925;-43
2022/08/07 07:37:51;;;;;;;;;;;26.70;38.90;;;;;;8363348;28;19924;-44
2022/08/07 07:41:53;;;;;;;;;;;26.80;39.00;;;;;;8363613;28;19943;-44
2022/08/07 07:45:53;;;;;;;;;;;26.70;38.90;;;;;;8363666;28;20428;-44
2022/08/07 07:49:54;;;;;;;;;;;26.80;39.00;;;;;;8363041;28;19970;-44
2022/08/07 07:53:56;;;;;;;;;;;26.80;39.00;;;;;;8363798;28;20007;-44
2022/08/07 07:57:57;;;;;;;;;;;26.80;38.90;;;;;;8363708;28;19916;-43
2022/08/07 08:01:58;;;;;;;;;;;26.70;38.90;;;;;;8362852;28;20374;-46
2022/08/07 08:05:59;;;;;;;;;;;26.80;38.90;;;;;;8363445;28;19917;-44
2022/08/07 08:10:00;;;;;;;;;;;26.80;38.90;;;;;;8363249;28;20426;-44
2022/08/07 08:14:01;;;;;;;;;;;26.80;38.90;;;;;;8363018;28;20016;-45
2022/08/07 08:18:02;;;;;;;;;;;26.80;38.90;;;;;;8368590;28;19929;-44
2022/08/07 08:30:43;;;;;;;;;;;26.80;38.90;;;;;;8363028;28;19936;-44
2022/08/07 08:34:45;;;;;;;;;;;26.80;38.90;;;;;;8362817;28;20003;-44
2022/08/07 08:38:47;;;;;;;;;;;26.80;38.80;;;;;;8362226;28;19970;-43
2022/08/07 08:42:53;;;;;;;;;;;26.80;38.90;;;;;;8366738;28;19956;-44
2022/08/07 08:47:14;;;;;;;;;;;26.80;38.80;;;;;;8368363;28;19917;-45
2022/08/07 08:51:26;;;;;;;;;;;26.80;38.80;;;;;;8337694;28;19925;-43
2022/08/07 08:55:32;;;;;;;;;;;26.80;38.80;;;;;;8368920;28;20377;-44
2022/08/07 08:59:40;;;;;;;;;;;26.80;38.80;;;;;;8368420;28;19959;-43
2022/08/07 09:04:00;;;;;;;;;;;26.90;38.90;;;;;;8368548;28;19921;-45
2022/08/07 09:08:19;;;;;;;;;;;26.80;38.80;;;;;;8367811;28;19917;-44
2022/08/07 09:12:36;;;;;;;;;;;26.90;38.90;;;;;;8367913;28;19924;-45
2022/08/07 09:16:45;;;;;;;;;;;26.80;38.80;;;;;;8368207;28;19917;-44
2022/08/07 09:20:49;;;;;;;;;;;26.90;38.90;;;;;;8367392;28;19983;-44
2022/08/07 09:24:57;;;;;;;;;;;26.80;38.90;;;;;;8368085;28;19917;-45
2022/08/07 09:29:20;;;;;;;;;;;26.90;38.90;;;;;;8367263;28;19924;-45
2022/08/07 09:33:39;;;;;;;;;;;26.90;38.90;;;;;;8359083;28;19924;-43
2022/08/07 09:37:44;;;;;;;;;;;26.90;38.90;;;;;;8367510;28;19975;-43
2022/08/07 09:42:01;;;;;;;;;;;26.90;38.80;;;;;;8367360;28;19917;-44
2022/08/07 09:46:05;;;;;;;;;;;26.90;38.80;;;;;;8367418;28;19925;-43
2022/08/07 09:50:12;;;;;;;;;;;27.00;38.90;;;;;;8366698;28;19913;-45
2022/08/07 09:54:21;;;;;;;;;;;27.00;38.80;;;;;;8365787;28;19921;-44
2022/08/07 09:58:25;;;;;;;;;;;27.00;38.80;;;;;;8366703;28;20347;-42
2022/08/07 10:02:41;;;;;;;;;;;27.10;38.90;;;;;;8366128;28;19917;-45
2022/08/07 10:07:00;;;;;;;;;;;27.10;38.80;;;;;;8365610;28;19925;-46
2022/08/07 10:11:21;;;;;;;;;;;27.10;38.80;;;;;;8347888;28;20031;-44
2022/08/07 10:15:34;;;;;;;;;;;27.10;38.80;;;;;;8366962;28;19956;-46
2022/08/07 10:19:41;;;;;;;;;;;27.20;38.80;;;;;;8366267;28;19917;-45
2022/08/07 10:23:57;;;;;;;;;;;27.20;38.80;;;;;;8347649;28;19921;-44
2022/08/07 10:28:11;;;;;;;;;;;27.20;38.80;;;;;;8365713;28;19996;-43
2022/08/07 10:32:17;;;;;;;;;;;27.20;38.70;;;;;;8364920;28;19999;-45
2022/08/07 10:36:17;;;;;;;;;;;27.20;38.70;;;;;;8332785;28;19928;-44
2022/08/07 10:40:20;;;;;;;;;;;27.20;38.70;;;;;;8332924;28;19957;-45
2022/08/07 10:44:31;;;;;;;;;;;27.30;38.80;;;;;;8314084;28;20378;-44
2022/08/07 10:48:38;;;;;;;;;;;27.30;38.80;;;;;;8332251;28;19928;-44
2022/08/07 10:52:56;;;;;;;;;;;27.30;38.70;;;;;;8331909;28;19925;-43
2022/08/07 10:57:02;;;;;;;;;;;27.30;38.70;;;;;;8331885;28;20374;-45
2022/08/07 11:01:18;;;;;;;;;;;27.30;38.70;;;;;;8331714;28;19917;-45
2022/08/07 11:05:18;;;;;;;;;;;27.30;38.60;;;;;;8331229;28;19913;-45
2022/08/07 11:09:22;;;;;;;;;;;27.40;38.70;;;;;;8331518;28;19917;-44
2022/08/07 11:13:25;;;;;;;;;;;27.40;38.60;;;;;;8331392;28;19929;-46
2022/08/07 11:17:38;;;;;;;;;;;27.40;38.70;;;;;;8330842;28;19917;-45
2022/08/07 11:21:43;;;;;;;;;;;27.40;38.60;;;;;;8331143;28;19917;-45
2022/08/07 11:25:53;;;;;;;;;;;27.40;38.60;;;;;;8331198;28;19992;-45
2022/08/07 11:30:04;;;;;;;;;;;27.40;38.60;;;;;;8330642;28;20271;-45
2022/08/07 11:34:20;;;;;;;;;;;27.50;38.70;;;;;;8345710;28;19931;-45
2022/08/07 11:38:36;;;;;;;;;;;27.50;38.60;;;;;;8363252;28;20324;-45
2022/08/07 11:42:52;;;;;;;;;;;27.50;38.60;;;;;;8363630;28;19917;-44
2022/08/07 11:47:12;;;;;;;;;;;27.50;38.60;;;;;;8363088;28;19920;-45
2022/08/07 11:51:33;;;;;;;;;;;27.50;38.60;;;;;;8345763;28;20279;-44
2022/08/07 11:55:39;;;;;;;;;;;27.60;39.20;;;;;;8363689;28;19991;-44
2022/08/07 11:59:55;;;;;;;;;;;27.60;38.70;;;;;;8362547;28;20007;-44
2022/08/07 12:03:59;;;;;;;;;;;27.60;38.60;;;;;;8363331;28;19924;-43
2022/08/07 12:08:09;;;;;;;;;;;27.60;38.60;;;;;;8362799;28;19916;-44
2022/08/07 12:12:17;;;;;;;;;;;27.70;38.60;;;;;;8351511;28;19928;-46
2022/08/07 12:16:24;;;;;;;;;;;27.70;38.50;;;;;;8398339;28;19958;-45
2022/08/07 12:20:29;;;;;;;;;;;27.70;38.50;;;;;;8402938;28;19999;-45
2022/08/07 12:29:11;;;;;;;;;;;27.80;38.50;;;;;;8403986;28;19927;-46
2022/08/07 12:33:17;;;;;;;;;;;27.80;38.50;;;;;;8402320;28;20437;-45
2022/08/07 12:37:18;;;;;;;;;;;27.80;38.50;;;;;;8402303;28;19917;-44
2022/08/07 12:41:20;;;;;;;;;;;27.80;38.40;;;;;;8384019;28;19935;-46
2022/08/07 12:45:32;;;;;;;;;;;27.80;38.40;;;;;;8402543;28;20385;-47
2022/08/07 12:49:52;;;;;;;;;;;27.80;38.30;;;;;;8401987;28;20327;-44
2022/08/07 12:54:08;;;;;;;;;;;27.90;38.40;;;;;;8400723;28;20441;-45
2022/08/07 12:58:11;;;;;;;;;;;27.90;38.40;;;;;;8402363;28;19917;-46
2022/08/07 13:02:30;;;;;;;;;;;27.90;38.30;;;;;;8401159;28;20015;-44
2022/08/07 13:06:36;;;;;;;;;;;27.90;38.30;;;;;;8372314;28;19919;-45
2022/08/07 13:10:45;;;;;;;;;;;27.90;38.30;;;;;;8368509;28;20317;-45
2022/08/07 13:14:58;;;;;;;;;;;27.90;38.30;;;;;;8393175;28;20365;-45
2022/08/07 13:19:07;;;;;;;;;;;27.90;38.30;;;;;;8401322;28;20389;-44
2022/08/07 13:23:08;;;;;;;;;;;27.90;38.30;;;;;;8400512;28;19931;-44
2022/08/07 13:27:26;;;;;;;;;;;28.00;38.30;;;;;;8400781;28;19983;-45
2022/08/07 13:31:45;;;;;;;;;;;28.00;38.30;;;;;;8401046;28;19982;-46
2022/08/07 13:35:48;;;;;;;;;;;28.00;38.30;;;;;;8400075;28;19921;-45
2022/08/07 13:39:54;;;;;;;;;;;28.00;38.30;;;;;;8400519;28;19916;-44
2022/08/07 13:43:59;;;;;;;;;;;28.00;38.30;;;;;;8399991;28;20285;-45
2022/08/07 13:48:01;;;;;;;;;;;28.00;38.30;;;;;;8400262;28;19912;-44
2022/08/07 13:52:04;;;;;;;;;;;28.00;38.30;;;;;;8400380;28;19929;-44
2022/08/07 13:56:05;;;;;;;;;;;28.00;38.20;;;;;;8399634;28;20003;-44
2022/08/07 14:00:08;;;;;;;;;;;28.00;38.20;;;;;;8400280;28;20277;-45
2022/08/07 14:04:10;;;;;;;;;;;28.00;38.20;;;;;;8399795;28;19923;-44
2022/08/07 14:08:10;;;;;;;;;;;28.00;38.20;;;;;;8399114;28;19917;-44
2022/08/07 14:12:23;;;;;;;;;;;28.00;38.20;;;;;;8399590;28;20286;-45
2022/08/07 14:16:28;;;;;;;;;;;28.10;38.30;;;;;;8399557;28;20281;-46
2022/08/07 14:20:30;;;;;;;;;;;28.10;38.20;;;;;;8397820;28;19916;-44
2022/08/07 14:24:41;;;;;;;;;;;28.10;38.30;;;;;;8379651;28;19923;-45
2022/08/07 14:28:43;;;;;;;;;;;28.10;38.20;;;;;;8365995;28;19925;-46
2022/08/07 14:33:04;;;;;;;;;;;28.10;38.30;;;;;;8365156;28;20297;-43
2022/08/07 14:37:08;;;;;;;;;;;28.10;38.30;;;;;;8365307;28;19913;-42
2022/08/07 14:41:09;;;;;;;;;;;28.10;38.30;;;;;;8346541;28;19932;-44
2022/08/07 14:45:11;;;;;;;;;;;28.10;38.30;;;;;;8365522;28;19920;-46
2022/08/07 14:49:13;;;;;;;;;;;28.10;38.30;;;;;;8365379;28;19920;-45
2022/08/07 14:53:15;;;;;;;;;;;28.10;38.30;;;;;;8364502;28;19925;-45
2022/08/07 14:57:16;;;;;;;;;;;28.10;38.20;;;;;;8365111;28;19913;-45
2022/08/07 15:01:17;;;;;;;;;;;28.10;38.30;;;;;;8364870;28;20289;-44
2022/08/07 15:05:19;;;;;;;;;;;28.10;38.30;;;;;;8364306;28;19966;-43
2022/08/07 15:09:21;;;;;;;;;;;28.10;38.30;;;;;;8365015;28;19939;-45
2022/08/07 15:13:23;;;;;;;;;;;28.10;38.30;;;;;;8364602;28;19971;-44
2022/08/07 15:17:31;;;;;;;;;;;28.10;38.30;;;;;;8364147;28;19912;-43
2022/08/07 15:21:33;;;;;;;;;;;28.10;38.30;;;;;;8364311;28;19916;-44
2022/08/07 15:25:36;;;;;;;;;;;28.10;38.30;;;;;;8364515;28;20373;-46
2022/08/07 15:29:40;;;;;;;;;;;28.10;38.20;;;;;;8363492;28;19917;-45
2022/08/07 15:33:41;;;;;;;;;;;28.10;38.20;;;;;;8345828;28;19960;-45
2022/08/07 15:37:42;;;;;;;;;;;28.10;38.20;;;;;;8363903;28;19916;-45
2022/08/07 15:42:01;;;;;;;;;;;28.10;38.20;;;;;;8363379;28;19916;-44
2022/08/07 15:46:13;;;;;;;;;;;28.10;38.20;;;;;;8363768;28;19921;-46
2022/08/07 15:50:15;;;;;;;;;;;28.10;38.20;;;;;;8362431;28;19924;-44
2022/08/07 15:54:16;;;;;;;;;;;28.10;38.20;;;;;;8363334;28;19932;-44
2022/08/07 15:58:20;;;;;;;;;;;28.10;38.20;;;;;;8363399;28;20254;-45
2022/08/07 16:02:23;;;;;;;;;;;28.10;38.20;;;;;;8363047;28;19913;-44
2022/08/07 16:06:28;;;;;;;;;;;28.10;38.20;;;;;;8363032;28;20413;-43
2022/08/07 16:10:29;;;;;;;;;;;28.10;38.20;;;;;;8363235;28;19917;-45
2022/08/07 16:14:52;;;;;;;;;;;28.10;38.20;;;;;;8362600;28;19924;-46
2022/08/07 16:19:22;;;;;;;;;;;28.10;38.20;;;;;;8363345;28;20270;-45
2022/08/07 16:23:29;;;;;;;;;;;28.10;38.50;;;;;;8362631;28;19924;-45
2022/08/07 16:27:37;;;;;;;;;;;28.10;38.20;;;;;;8363770;28;19913;-45
2022/08/07 16:31:42;;;;;;;;;;;28.10;38.10;;;;;;8362741;28;20056;-45
2022/08/07 16:35:46;;;;;;;;;;;28.10;38.20;;;;;;8362342;28;20408;-45
2022/08/07 16:40:05;;;;;;;;;;;28.10;38.20;;;;;;8362834;28;20374;-45
2022/08/07 16:44:22;;;;;;;;;;;28.10;38.10;;;;;;8362200;28;19923;-47
2022/08/07 16:48:29;;;;;;;;;;;28.10;38.20;;;;;;8362703;28;20379;-45
2022/08/07 16:52:33;;;;;;;;;;;28.10;38.20;;;;;;8362793;28;20313;-45
2022/08/07 16:56:47;;;;;;;;;;;28.10;38.20;;;;;;8362070;28;20324;-45
2022/08/07 17:00:48;;;;;;;;;;;28.10;38.20;;;;;;8362485;28;20322;-44
2022/08/07 17:04:58;;;;;;;;;;;28.10;38.20;;;;;;8368024;28;19917;-43
2022/08/07 17:08:58;;;;;;;;;;;28.10;38.20;;;;;;8368845;28;20278;-45
2022/08/07 17:13:17;;;;;;;;;;;28.10;38.30;;;;;;8368475;28;19925;-44
2022/08/07 17:17:31;;;;;;;;;;;28.10;38.30;;;;;;8367647;28;19940;-45
2022/08/07 17:21:33;;;;;;;;;;;28.10;38.30;;;;;;8368145;28;19956;-45
2022/08/07 17:25:40;;;;;;;;;;;28.00;38.20;;;;;;8368042;28;19913;-45
2022/08/07 17:29:55;;;;;;;;;;;28.00;38.20;;;;;;8367479;28;20382;-45
2022/08/07 17:34:08;;;;;;;;;;;28.00;38.20;;;;;;8367497;28;19932;-43
2022/08/07 17:38:34;;;;;;;;;;;28.00;38.20;;;;;;8367466;28;20332;-43
2022/08/07 17:42:35;;;;;;;;;;;28.00;38.30;;;;;;8342097;28;19924;-44
2022/08/07 17:46:54;;;;;;;;;;;28.00;38.30;;;;;;8367265;28;19916;-44
2022/08/07 20:04:42;;;;;;;;;;;27.70;38.50;;;;;;8365418;28;20396;-45
2022/08/07 20:08:47;;;;;;;;;;;27.70;38.50;;;;;;8396068;28;19924;-47
2022/08/07 20:12:49;;;;;;;;;;;27.70;38.60;;;;;;8369128;28;19928;-44
2022/08/07 20:16:50;;;;;;;;;;;27.70;38.60;;;;;;8362576;28;19917;-45
2022/08/07 20:20:54;;;;;;;;;;;27.70;38.60;;;;;;8363348;28;19999;-45
2022/08/07 20:24:59;;;;;;;;;;;27.70;38.60;;;;;;8363118;28;19935;-44
2022/08/07 20:29:01;;;;;;;;;;;27.70;38.60;;;;;;8362565;28;20320;-46
2022/08/07 20:33:03;;;;;;;;;;;27.70;38.60;;;;;;8362812;28;20016;-45
2022/08/07 20:37:04;;;;;;;;;;;27.70;38.60;;;;;;8364244;28;19917;-44
2022/08/07 20:41:06;;;;;;;;;;;27.70;38.60;;;;;;8369039;28;19921;-45
2022/08/07 20:45:08;;;;;;;;;;;27.70;38.70;;;;;;8369298;28;19923;-44
2022/08/07 20:49:10;;;;;;;;;;;27.70;38.60;;;;;;8369355;28;20365;-46
2022/08/07 20:53:12;;;;;;;;;;;27.70;38.60;;;;;;8368540;28;19932;-45
2022/08/07 20:57:14;;;;;;;;;;;27.60;38.60;;;;;;8369006;28;19990;-46
2022/08/07 21:01:16;;;;;;;;;;;27.60;38.60;;;;;;8368772;28;19917;-45
2022/08/07 21:05:17;;;;;;;;;;;27.60;38.60;;;;;;8368207;28;20003;-45
2022/08/07 21:09:18;;;;;;;;;;;27.60;38.60;;;;;;8368687;28;20370;-45
2022/08/07 21:13:20;;;;;;;;;;;27.60;38.60;;;;;;8368384;28;19924;-45
2022/08/07 21:17:23;;;;;;;;;;;27.60;38.70;;;;;;8367782;28;19932;-44
2022/08/07 21:21:24;;;;;;;;;;;27.60;38.60;;;;;;8368059;28;19917;-43
2022/08/07 21:25:28;;;;;;;;;;;27.60;38.70;;;;;;8368055;28;19971;-44
2022/08/07 21:29:30;;;;;;;;;;;27.60;38.70;;;;;;8367616;28;20054;-45
2022/08/07 21:33:39;;;;;;;;;;;27.60;38.70;;;;;;8367815;28;20348;-45
2022/08/07 21:37:43;;;;;;;;;;;27.50;38.60;;;;;;8367602;28;19917;-44
2022/08/07 21:41:48;;;;;;;;;;;27.60;38.70;;;;;;8367023;28;19924;-44
2022/08/07 21:46:03;;;;;;;;;;;27.50;38.60;;;;;;8367334;28;19917;-45
2022/08/07 21:50:29;;;;;;;;;;;27.50;38.70;;;;;;8367166;28;19917;-45
2022/08/07 21:54:37;;;;;;;;;;;27.50;38.70;;;;;;8364055;28;19925;-45
2022/08/07 21:58:43;;;;;;;;;;;27.50;38.70;;;;;;8367160;28;19939;-44
2022/08/07 22:03:02;;;;;;;;;;;27.50;38.70;;;;;;8381485;28;20384;-44
2022/08/07 22:07:14;;;;;;;;;;;27.50;38.70;;;;;;8366519;28;19927;-44
2022/08/07 22:11:16;;;;;;;;;;;27.50;38.70;;;;;;8366099;28;19931;-44
2022/08/07 22:15:23;;;;;;;;;;;27.50;38.70;;;;;;8366630;28;19913;-44
2022/08/07 22:19:31;;;;;;;;;;;27.50;38.70;;;;;;8366741;28;19921;-44
2022/08/07 22:23:41;;;;;;;;;;;27.50;38.80;;;;;;8366100;28;20002;-44
2022/08/07 22:27:55;;;;;;;;;;;27.40;38.70;;;;;;8369261;28;19917;-44
2022/08/07 22:31:58;;;;;;;;;;;27.40;38.70;;;;;;8371450;28;19979;-45
2022/08/07 22:36:09;;;;;;;;;;;27.40;38.70;;;;;;8369472;28;19963;-45
2022/08/07 22:40:13;;;;;;;;;;;27.40;38.80;;;;;;8372210;28;19941;-43
2022/08/07 22:44:16;;;;;;;;;;;27.40;38.70;;;;;;8374482;28;19916;-44
2022/08/07 22:48:26;;;;;;;;;;;27.40;38.80;;;;;;8372468;28;20373;-44
2022/08/07 22:52:45;;;;;;;;;;;27.40;38.80;;;;;;8385549;28;19924;-44
2022/08/07 22:56:46;;;;;;;;;;;27.40;38.80;;;;;;8403901;28;19923;-44
2022/08/07 23:01:09;;;;;;;;;;;27.40;38.80;;;;;;8404201;28;19978;-43
2022/08/07 23:05:35;;;;;;;;;;;27.40;38.80;;;;;;8403570;28;19927;-44
2022/08/07 23:09:50;;;;;;;;;;;27.30;38.80;;;;;;8400735;28;19923;-43
2022/08/07 23:13:54;;;;;;;;;;;27.30;38.80;;;;;;8397737;28;19960;-44
2022/08/07 23:18:08;;;;;;;;;;;27.30;38.80;;;;;;8397579;28;19916;-46
2022/08/07 23:22:11;;;;;;;;;;;27.30;38.80;;;;;;8397870;28;19939;-44
2022/08/07 23:26:18;;;;;;;;;;;27.30;38.90;;;;;;8397050;28;19916;-45
2022/08/07 23:30:21;;;;;;;;;;;27.30;38.80;;;;;;8397591;28;20365;-45
2022/08/07 23:34:37;;;;;;;;;;;27.30;38.80;;;;;;8397245;28;20032;-44
2022/08/07 23:38:52;;;;;;;;;;;27.30;38.90;;;;;;8396689;28;19917;-44
2022/08/07 23:43:13;;;;;;;;;;;27.30;38.80;;;;;;8397527;28;19916;-44
2022/08/07 23:47:26;;;;;;;;;;;27.30;38.90;;;;;;8396915;28;19939;-44
2022/08/07 23:51:27;;;;;;;;;;;27.30;38.90;;;;;;8397267;28;19921;-44
2022/08/07 23:55:30;;;;;;;;;;;27.30;38.90;;;;;;8397180;28;19959;-45
2022/08/07 23:59:37;;;;;;;;;;;27.30;38.90;;;;;;8396939;28;19928;-44
